createdAt,value
2019-04-01T00:00:05.631Z,2.69
2019-04-01T00:01:07.526Z,2.63
2019-04-01T00:02:05.588Z,2.66
2019-04-01T00:03:06.607Z,2.63
2019-04-01T00:04:05.548Z,2.62
2019-04-01T00:05:05.668Z,2.61
2019-04-01T00:06:05.540Z,2.62
2019-04-01T00:07:05.524Z,2.63
2019-04-01T00:08:05.499Z,2.53
2019-04-01T00:09:05.600Z,2.48
2019-04-01T00:10:05.512Z,2.48
2019-04-01T00:11:05.543Z,2.47
2019-04-01T00:12:05.502Z,2.44
2019-04-01T00:13:05.452Z,2.53
2019-04-01T00:14:05.544Z,2.58
2019-04-01T00:15:05.465Z,2.53
2019-04-01T00:16:05.474Z,2.51
2019-04-01T00:17:05.424Z,2.56
2019-04-01T00:18:05.404Z,2.50
2019-04-01T00:19:05.376Z,2.56
2019-04-01T00:20:05.495Z,2.51
2019-04-01T00:21:05.366Z,2.41
2019-04-01T00:22:06.407Z,2.43
2019-04-01T00:23:05.562Z,2.33
2019-04-01T00:24:06.347Z,2.27
2019-04-01T00:25:05.338Z,2.25
2019-04-01T00:26:05.358Z,2.25
2019-04-01T00:27:05.298Z,2.23
2019-04-01T00:28:05.291Z,2.22
2019-04-01T00:29:06.280Z,2.33
2019-04-01T00:30:05.280Z,2.22
2019-04-01T00:31:06.321Z,2.23
2019-04-01T00:32:05.250Z,2.08
2019-04-01T00:33:05.255Z,2.07
2019-04-01T00:34:05.222Z,2.08
2019-04-01T00:35:05.312Z,2.04
2019-04-01T00:36:05.205Z,2.11
2019-04-01T00:37:06.234Z,2.08
2019-04-01T00:38:05.174Z,2.01
2019-04-01T00:39:05.169Z,1.98
2019-04-01T00:40:05.265Z,1.92
2019-04-01T00:41:05.157Z,1.88
2019-04-01T00:42:05.159Z,1.95
2019-04-01T00:43:05.117Z,2.00
2019-04-01T00:44:05.116Z,1.83
2019-04-01T00:45:05.138Z,1.85
2019-04-01T00:46:06.137Z,1.79
2019-04-01T00:47:05.067Z,1.70
2019-04-01T00:48:06.078Z,1.71
2019-04-01T00:49:05.049Z,1.70
2019-04-01T00:50:06.161Z,1.77
2019-04-01T00:51:05.042Z,1.70
2019-04-01T00:52:05.129Z,1.61
2019-04-01T00:53:05.011Z,1.71
2019-04-01T00:54:06.094Z,1.60
2019-04-01T00:55:05.091Z,1.56
2019-04-01T00:56:04.992Z,1.53
2019-04-01T00:57:05.073Z,1.52
2019-04-01T00:58:04.942Z,1.43
2019-04-01T00:59:05.006Z,1.43
2019-04-01T01:00:05.030Z,1.31
2019-04-01T01:01:04.914Z,1.36
2019-04-01T01:02:05.934Z,1.26
2019-04-01T01:03:04.896Z,1.31
2019-04-01T01:04:05.975Z,1.17
2019-04-01T01:05:04.868Z,1.16
2019-04-01T01:06:04.938Z,1.14
2019-04-01T01:07:04.848Z,1.18
2019-04-01T01:08:04.928Z,1.06
2019-04-01T01:09:04.828Z,1.07
2019-04-01T01:10:04.873Z,1.18
2019-04-01T01:11:04.869Z,1.10
2019-04-01T01:12:04.789Z,1.14
2019-04-01T01:13:04.860Z,1.14
2019-04-01T01:14:04.771Z,1.17
2019-04-01T01:15:04.802Z,1.16
2019-04-01T01:16:04.773Z,1.16
2019-04-01T01:17:04.832Z,1.20
2019-04-01T01:18:04.722Z,1.13
2019-04-01T01:19:04.774Z,1.07
2019-04-01T01:20:04.703Z,1.04
2019-04-01T01:21:05.785Z,1.08
2019-04-01T01:22:04.784Z,1.07
2019-04-01T01:23:04.674Z,1.06
2019-04-01T01:24:04.715Z,1.07
2019-04-01T01:25:04.666Z,0.99
2019-04-01T01:26:04.695Z,1.00
2019-04-01T01:27:05.748Z,0.98
2019-04-01T01:28:04.606Z,0.86
2019-04-01T01:29:05.677Z,0.88
2019-04-01T01:30:04.608Z,0.82
2019-04-01T01:31:04.628Z,0.90
2019-04-01T01:32:04.578Z,0.90
2019-04-01T01:33:05.648Z,0.86
2019-04-01T01:34:04.555Z,0.92
2019-04-01T01:35:04.569Z,0.78
2019-04-01T01:36:04.571Z,0.90
2019-04-01T01:37:04.611Z,0.80
2019-04-01T01:38:04.503Z,0.82
2019-04-01T01:39:04.543Z,0.82
2019-04-01T01:40:04.473Z,0.88
2019-04-01T01:41:04.513Z,0.82
2019-04-01T01:42:04.453Z,0.82
2019-04-01T01:43:04.453Z,0.84
2019-04-01T01:44:04.435Z,0.74
2019-04-01T01:45:04.444Z,0.71
2019-04-01T01:46:04.445Z,0.63
2019-04-01T01:47:04.492Z,0.60
2019-04-01T01:48:04.390Z,0.62
2019-04-01T01:49:04.383Z,0.72
2019-04-01T01:50:04.487Z,0.57
2019-04-01T01:51:04.386Z,0.60
2019-04-01T01:52:04.427Z,0.62
2019-04-01T01:53:04.338Z,0.60
2019-04-01T01:54:04.338Z,0.49
2019-04-01T01:55:04.319Z,0.45
2019-04-01T01:56:04.440Z,0.51
2019-04-01T01:57:04.279Z,0.49
2019-04-01T01:58:04.330Z,0.49
2019-04-01T01:59:04.281Z,0.49
2019-04-01T02:00:04.263Z,0.44
2019-04-01T02:01:04.381Z,0.53
2019-04-01T02:02:04.232Z,0.52
2019-04-01T02:03:05.292Z,0.44
2019-04-01T02:04:04.223Z,0.49
2019-04-01T02:05:04.215Z,0.51
2019-04-01T02:06:04.323Z,0.44
2019-04-01T02:07:04.165Z,0.34
2019-04-01T02:08:05.235Z,0.28
2019-04-01T02:09:04.172Z,0.25
2019-04-01T02:10:04.135Z,0.37
2019-04-01T02:11:04.155Z,0.30
2019-04-01T02:12:04.186Z,0.34
2019-04-01T02:13:04.112Z,0.30
2019-04-01T02:14:04.118Z,0.19
2019-04-01T02:15:04.089Z,0.30
2019-04-01T02:16:04.099Z,0.35
2019-04-01T02:17:04.118Z,0.30
2019-04-01T02:18:04.069Z,0.34
2019-04-01T02:19:04.060Z,0.25
2019-04-01T02:20:04.030Z,0.17
2019-04-01T02:21:04.050Z,0.23
2019-04-01T02:22:04.001Z,0.23
2019-04-01T02:23:04.042Z,0.26
2019-04-01T02:24:03.983Z,0.17
2019-04-01T02:25:04.064Z,0.07
2019-04-01T02:26:03.984Z,0.04
2019-04-01T02:27:04.004Z,0.04
2019-04-01T02:28:03.938Z,0.10
2019-04-01T02:29:04.038Z,-0.02
2019-04-01T02:30:03.925Z,0.01
2019-04-01T02:31:05.045Z,0.04
2019-04-01T02:32:03.918Z,0.02
2019-04-01T02:33:11.486Z,-0.12
2019-04-01T02:34:03.889Z,-0.01
2019-04-01T02:35:03.947Z,-0.06
2019-04-01T02:36:03.870Z,0.01
2019-04-01T02:37:03.849Z,0.05
2019-04-01T02:38:03.829Z,-0.14
2019-04-01T02:39:03.924Z,-0.13
2019-04-01T02:40:03.810Z,-0.13
2019-04-01T02:41:03.902Z,-0.01
2019-04-01T02:42:03.798Z,-0.03
2019-04-01T02:43:04.810Z,0.02
2019-04-01T02:44:03.760Z,-0.12
2019-04-01T02:45:03.822Z,-0.05
2019-04-01T02:46:03.772Z,-0.01
2019-04-01T02:47:04.783Z,-0.13
2019-04-01T02:48:03.715Z,-0.09
2019-04-01T02:49:03.795Z,-0.12
2019-04-01T02:50:03.692Z,-0.08
2019-04-01T02:51:03.777Z,-0.14
2019-04-01T02:52:03.666Z,-0.13
2019-04-01T02:53:03.664Z,-0.13
2019-04-01T02:54:03.661Z,-0.14
2019-04-01T02:55:06.688Z,-0.14
2019-04-01T02:56:03.647Z,-0.09
2019-04-01T02:57:03.637Z,-0.19
2019-04-01T02:58:03.611Z,-0.13
2019-04-01T02:59:04.698Z,-0.20
2019-04-01T03:00:03.598Z,-0.16
2019-04-01T03:01:05.720Z,-0.20
2019-04-01T03:02:03.563Z,-0.24
2019-04-01T03:03:04.571Z,-0.23
2019-04-01T03:04:03.547Z,-0.21
2019-04-01T03:05:03.585Z,-0.20
2019-04-01T03:06:03.561Z,-0.31
2019-04-01T03:07:03.522Z,-0.34
2019-04-01T03:08:03.504Z,-0.42
2019-04-01T03:09:03.474Z,-0.45
2019-04-01T03:10:03.462Z,-0.45
2019-04-01T03:11:03.535Z,-0.47
2019-04-01T03:12:03.542Z,-0.41
2019-04-01T03:13:03.534Z,-0.42
2019-04-01T03:14:03.513Z,-0.44
2019-04-01T03:15:03.425Z,-0.47
2019-04-01T03:16:03.435Z,-0.49
2019-04-01T03:17:03.425Z,-0.60
2019-04-01T03:18:03.477Z,-0.52
2019-04-01T03:19:03.359Z,-0.55
2019-04-01T03:20:03.405Z,-0.65
2019-04-01T03:21:03.347Z,-0.60
2019-04-01T03:22:03.379Z,-0.62
2019-04-01T03:23:03.320Z,-0.60
2019-04-01T03:24:05.431Z,-0.62
2019-04-01T03:25:03.341Z,-0.49
2019-04-01T03:26:03.298Z,-0.50
2019-04-01T03:27:03.319Z,-0.58
2019-04-01T03:28:03.292Z,-0.58
2019-04-01T03:29:03.321Z,-0.60
2019-04-01T03:30:03.306Z,-0.58
2019-04-01T03:31:03.261Z,-0.65
2019-04-01T03:32:03.326Z,-0.62
2019-04-01T03:33:03.206Z,-0.63
2019-04-01T03:34:03.278Z,-0.63
2019-04-01T03:35:03.222Z,-0.62
2019-04-01T03:36:03.193Z,-0.60
2019-04-01T03:37:04.225Z,-0.63
2019-04-01T03:38:03.157Z,-0.67
2019-04-01T03:39:04.224Z,-0.71
2019-04-01T03:40:03.129Z,-0.67
2019-04-01T03:41:03.128Z,-0.67
2019-04-01T03:42:03.146Z,-0.65
2019-04-01T03:43:03.174Z,-0.63
2019-04-01T03:44:03.094Z,-0.77
2019-04-01T03:45:03.107Z,-0.78
2019-04-01T03:46:03.079Z,-0.63
2019-04-01T03:47:03.189Z,-0.70
2019-04-01T03:48:03.040Z,-0.74
2019-04-01T03:49:03.105Z,-0.81
2019-04-01T03:50:03.053Z,-0.73
2019-04-01T03:51:04.031Z,-0.78
2019-04-01T03:52:03.021Z,-0.67
2019-04-01T03:53:03.047Z,-0.65
2019-04-01T03:54:02.976Z,-0.68
2019-04-01T03:55:03.001Z,-0.56
2019-04-01T03:56:02.979Z,-0.62
2019-04-01T03:57:02.973Z,-0.56
2019-04-01T03:58:02.995Z,-0.59
2019-04-01T03:59:02.924Z,-0.62
2019-04-01T04:00:03.024Z,-0.60
2019-04-01T04:01:02.905Z,-0.59
2019-04-01T04:02:02.915Z,-0.60
2019-04-01T04:03:02.865Z,-0.60
2019-04-01T04:04:02.894Z,-0.70
2019-04-01T04:05:02.847Z,-0.71
2019-04-01T04:06:02.932Z,-0.68
2019-04-01T04:07:02.865Z,-0.73
2019-04-01T04:08:02.817Z,-0.73
2019-04-01T04:09:02.833Z,-0.76
2019-04-01T04:10:02.816Z,-0.65
2019-04-01T04:11:02.879Z,-0.70
2019-04-01T04:12:02.814Z,-0.71
2019-04-01T04:13:02.780Z,-0.83
2019-04-01T04:14:02.750Z,-0.83
2019-04-01T04:15:02.852Z,-0.95
2019-04-01T04:16:02.730Z,-1.00
2019-04-01T04:17:02.822Z,-0.99
2019-04-01T04:18:02.702Z,-0.96
2019-04-01T04:19:02.711Z,-1.07
2019-04-01T04:20:02.693Z,-1.00
2019-04-01T04:21:02.744Z,-1.05
2019-04-01T04:22:02.686Z,-0.99
2019-04-01T04:23:02.694Z,-1.03
2019-04-01T04:24:02.652Z,-0.96
2019-04-01T04:25:03.644Z,-1.03
2019-04-01T04:26:02.635Z,-1.02
2019-04-01T04:27:02.704Z,-1.05
2019-04-01T04:28:02.602Z,-0.95
2019-04-01T04:29:02.611Z,-0.96
2019-04-01T04:30:02.659Z,-1.00
2019-04-01T04:31:02.557Z,-1.03
2019-04-01T04:32:03.666Z,-0.99
2019-04-01T04:33:02.529Z,-1.08
2019-04-01T04:34:02.539Z,-1.10
2019-04-01T04:35:02.530Z,-1.17
2019-04-01T04:36:04.627Z,-1.17
2019-04-01T04:37:02.562Z,-1.17
2019-04-01T04:38:02.613Z,-1.18
2019-04-01T04:39:02.473Z,-1.35
2019-04-01T04:40:02.462Z,-1.29
2019-04-01T04:41:02.512Z,-1.33
2019-04-01T04:42:02.478Z,-1.17
2019-04-01T04:43:03.484Z,-1.32
2019-04-01T04:44:02.412Z,-1.14
2019-04-01T04:45:02.423Z,-1.29
2019-04-01T04:46:02.392Z,-1.29
2019-04-01T04:47:03.485Z,-1.31
2019-04-01T04:48:02.376Z,-1.23
2019-04-01T04:49:04.403Z,-1.29
2019-04-01T04:50:02.415Z,-1.20
2019-04-01T04:51:02.336Z,-1.14
2019-04-01T04:52:04.659Z,-1.29
2019-04-01T04:53:02.308Z,-1.20
2019-04-01T04:54:02.397Z,-1.32
2019-04-01T04:55:02.297Z,-1.32
2019-04-01T04:56:02.326Z,-1.25
2019-04-01T04:57:02.298Z,-1.23
2019-04-01T04:58:02.368Z,-1.20
2019-04-01T04:59:02.257Z,-1.17
2019-04-01T05:00:03.330Z,-1.08
2019-04-01T05:01:02.249Z,-1.11
2019-04-01T05:02:02.380Z,-1.14
2019-04-01T05:03:02.190Z,-1.10
2019-04-01T05:04:02.374Z,-1.00
2019-04-01T05:05:02.171Z,-1.05
2019-04-01T05:06:02.171Z,-0.96
2019-04-01T05:07:02.192Z,-0.96
2019-04-01T05:08:02.245Z,-0.96
2019-04-01T05:09:02.132Z,-1.07
2019-04-01T05:10:02.183Z,-1.00
2019-04-01T05:11:02.124Z,-1.05
2019-04-01T05:12:02.134Z,-1.02
2019-04-01T05:13:02.184Z,-0.99
2019-04-01T05:14:02.076Z,-0.97
2019-04-01T05:15:03.145Z,-0.96
2019-04-01T05:16:02.051Z,-0.99
2019-04-01T05:17:02.069Z,-0.99
2019-04-01T05:18:02.056Z,-0.95
2019-04-01T05:19:02.090Z,-0.89
2019-04-01T05:20:02.007Z,-0.93
2019-04-01T05:21:02.027Z,-0.96
2019-04-01T05:22:02.098Z,-0.92
2019-04-01T05:23:02.002Z,-0.97
2019-04-01T05:24:03.058Z,-0.90
2019-04-01T05:25:01.948Z,-0.95
2019-04-01T05:26:02.075Z,-0.92
2019-04-01T05:27:01.949Z,-0.96
2019-04-01T05:28:02.062Z,-0.89
2019-04-01T05:29:01.915Z,-0.85
2019-04-01T05:30:01.933Z,-0.80
2019-04-01T05:31:01.882Z,-0.83
2019-04-01T05:32:01.975Z,-0.74
2019-04-01T05:33:01.883Z,-0.68
2019-04-01T05:34:01.904Z,-0.65
2019-04-01T05:35:01.833Z,-0.67
2019-04-01T05:36:01.950Z,-0.59
2019-04-01T05:37:01.815Z,-0.63
2019-04-01T05:38:01.834Z,-0.62
2019-04-01T05:39:01.796Z,-0.59
2019-04-01T05:40:01.818Z,-0.58
2019-04-01T05:41:01.788Z,-0.56
2019-04-01T05:42:02.777Z,-0.65
2019-04-01T05:43:01.778Z,-0.67
2019-04-01T05:44:03.837Z,-0.67
2019-04-01T05:45:01.737Z,-0.60
2019-04-01T05:46:01.818Z,-0.59
2019-04-01T05:47:01.700Z,-0.60
2019-04-01T05:48:01.805Z,-0.60
2019-04-01T05:49:01.690Z,-0.68
2019-04-01T05:50:01.803Z,-0.59
2019-04-01T05:51:01.669Z,-0.47
2019-04-01T05:52:01.730Z,-0.58
2019-04-01T05:53:01.664Z,-0.58
2019-04-01T05:54:01.643Z,-0.58
2019-04-01T05:55:01.637Z,-0.53
2019-04-01T05:56:01.712Z,-0.45
2019-04-01T05:57:01.612Z,-0.45
2019-04-01T05:58:01.694Z,-0.42
2019-04-01T05:59:01.562Z,-0.39
2019-04-01T06:00:01.563Z,-0.37
2019-04-01T06:01:01.649Z,-0.37
2019-04-01T06:02:01.546Z,-0.34
2019-04-01T06:03:01.630Z,-0.27
2019-04-01T06:04:01.514Z,-0.31
2019-04-01T06:05:01.507Z,-0.27
2019-04-01T06:06:01.588Z,-0.24
2019-04-01T06:07:01.486Z,-0.20
2019-04-01T06:08:01.557Z,-0.16
2019-04-01T06:09:01.478Z,-0.17
2019-04-01T06:10:01.458Z,-0.21
2019-04-01T06:11:01.448Z,-0.16
2019-04-01T06:12:01.499Z,-0.19
2019-04-01T06:13:01.439Z,-0.13
2019-04-01T06:14:01.430Z,-0.16
2019-04-01T06:15:02.411Z,-0.17
2019-04-01T06:16:01.380Z,-0.19
2019-04-01T06:17:01.431Z,-0.17
2019-04-01T06:18:01.371Z,-0.14
2019-04-01T06:19:01.472Z,-0.06
2019-04-01T06:20:01.342Z,-0.05
2019-04-01T06:21:01.402Z,-0.14
2019-04-01T06:22:01.317Z,-0.06
2019-04-01T06:23:01.384Z,0.04
2019-04-01T06:24:01.305Z,0.07
2019-04-01T06:25:01.386Z,-0.02
2019-04-01T06:26:01.286Z,-0.01
2019-04-01T06:27:01.315Z,-0.01
2019-04-01T06:28:01.275Z,0.15
2019-04-01T06:29:01.357Z,0.12
2019-04-01T06:30:01.229Z,0.08
2019-04-01T06:31:01.227Z,0.13
2019-04-01T06:32:01.196Z,0.12
2019-04-01T06:33:01.258Z,0.19
2019-04-01T06:34:01.181Z,0.12
2019-04-01T06:35:02.278Z,0.16
2019-04-01T06:36:01.157Z,0.16
2019-04-01T06:37:01.189Z,0.20
2019-04-01T06:38:01.149Z,0.30
2019-04-01T06:39:01.230Z,0.33
2019-04-01T06:40:01.127Z,0.37
2019-04-01T06:41:01.110Z,0.40
2019-04-01T06:42:01.100Z,0.51
2019-04-01T06:43:01.151Z,0.45
2019-04-01T06:44:01.064Z,0.48
2019-04-01T06:45:01.132Z,0.52
2019-04-01T06:46:01.057Z,0.64
2019-04-01T06:47:01.093Z,0.63
2019-04-01T06:48:01.033Z,0.63
2019-04-01T06:49:01.093Z,0.72
2019-04-01T06:50:00.995Z,0.75
2019-04-01T06:51:02.075Z,0.93
2019-04-01T06:52:00.974Z,1.95
2019-04-01T06:53:01.015Z,3.49
2019-04-01T06:54:00.965Z,5.33
2019-04-01T06:55:01.016Z,7.08
2019-04-01T06:56:00.941Z,8.64
2019-04-01T06:57:00.931Z,9.91
2019-04-01T06:58:00.938Z,11.09
2019-04-01T06:59:00.992Z,12.12
2019-04-01T07:00:00.890Z,12.98
2019-04-01T07:01:00.929Z,13.87
2019-04-01T07:02:00.891Z,14.49
2019-04-01T07:03:00.889Z,15.27
2019-04-01T07:04:00.922Z,15.91
2019-04-01T07:05:00.831Z,16.34
2019-04-01T07:06:00.860Z,16.77
2019-04-01T07:07:00.803Z,17.28
2019-04-01T07:08:00.812Z,17.46
2019-04-01T07:09:00.864Z,17.84
2019-04-01T07:10:00.783Z,18.14
2019-04-01T07:11:01.823Z,18.68
2019-04-01T07:12:00.753Z,18.90
2019-04-01T07:13:00.764Z,19.10
2019-04-01T07:14:00.737Z,19.38
2019-04-01T07:15:00.765Z,19.55
2019-04-01T07:16:14.652Z,19.80
2019-04-01T07:17:01.686Z,20.04
2019-04-01T07:18:00.698Z,19.90
2019-04-01T07:19:00.678Z,19.89
2019-04-01T07:20:00.718Z,20.02
2019-04-01T07:21:00.648Z,20.19
2019-04-01T07:22:00.752Z,20.44
2019-04-01T07:23:00.635Z,20.56
2019-04-01T07:24:00.739Z,20.60
2019-04-01T07:25:00.610Z,20.76
2019-04-01T07:26:00.620Z,21.12
2019-04-01T07:27:00.637Z,21.46
2019-04-01T07:28:00.695Z,21.24
2019-04-01T07:29:00.582Z,21.30
2019-04-01T07:30:01.612Z,21.30
2019-04-01T07:31:00.533Z,21.46
2019-04-01T07:32:00.635Z,21.36
2019-04-01T07:33:00.515Z,21.15
2019-04-01T07:34:00.526Z,21.36
2019-04-01T07:35:00.484Z,21.46
2019-04-01T07:36:00.505Z,21.64
2019-04-01T07:37:00.481Z,21.75
2019-04-01T07:38:00.536Z,21.83
2019-04-01T07:39:00.467Z,22.06
2019-04-01T07:40:00.436Z,21.83
2019-04-01T07:41:00.437Z,21.77
2019-04-01T07:42:00.408Z,21.94
2019-04-01T07:43:00.478Z,22.11
2019-04-01T07:44:00.409Z,22.23
2019-04-01T07:45:00.424Z,22.19
2019-04-01T07:46:00.380Z,22.04
2019-04-01T07:47:00.351Z,22.23
2019-04-01T07:48:00.424Z,22.21
2019-04-01T07:49:00.342Z,22.52
2019-04-01T07:50:00.418Z,22.72
2019-04-01T07:51:00.353Z,22.88
2019-04-01T07:52:01.314Z,22.97
2019-04-01T07:53:00.294Z,22.78
2019-04-01T07:54:01.417Z,22.75
2019-04-01T07:55:00.437Z,22.52
2019-04-01T07:56:02.578Z,22.60
2019-04-01T07:57:02.267Z,22.72
2019-04-01T07:58:00.229Z,22.60
2019-04-01T07:59:00.316Z,22.36
2019-04-01T08:00:00.368Z,22.39
2019-04-01T08:01:00.208Z,22.70
2019-04-01T08:02:00.190Z,23.09
2019-04-01T08:03:00.239Z,23.25
2019-04-01T08:04:00.179Z,22.84
2019-04-01T08:05:00.377Z,23.07
2019-04-01T08:06:00.151Z,23.72
2019-04-01T08:07:00.131Z,23.79
2019-04-01T08:08:00.172Z,24.18
2019-04-01T08:09:00.123Z,24.75
2019-04-01T08:10:00.261Z,24.92
2019-04-01T08:11:00.081Z,25.02
2019-04-01T08:12:00.077Z,25.04
2019-04-01T08:13:00.070Z,25.35
2019-04-01T08:14:00.124Z,25.54
2019-04-01T08:15:00.050Z,25.59
2019-04-01T08:16:01.047Z,25.61
2019-04-01T08:17:00.028Z,25.76
2019-04-01T08:18:00.018Z,24.61
2019-04-01T08:19:00.013Z,24.08
2019-04-01T08:20:00.161Z,24.18
2019-04-01T08:20:59.972Z,24.46
2019-04-01T08:22:00.030Z,24.79
2019-04-01T08:22:59.950Z,24.37
2019-04-01T08:24:00.010Z,24.15
2019-04-01T08:24:59.920Z,24.08
2019-04-01T08:26:00.001Z,23.92
2019-04-01T08:26:59.902Z,23.86
2019-04-01T08:27:59.943Z,23.78
2019-04-01T08:28:59.907Z,23.59
2019-04-01T08:29:59.983Z,24.15
2019-04-01T08:30:59.864Z,23.93
2019-04-01T08:31:59.916Z,22.72
2019-04-01T08:32:59.845Z,21.34
2019-04-01T08:33:59.888Z,20.96
2019-04-01T08:34:59.818Z,21.46
2019-04-01T08:36:00.907Z,22.12
2019-04-01T08:36:59.788Z,22.97
2019-04-01T08:38:01.871Z,23.39
2019-04-01T08:38:59.779Z,24.15
2019-04-01T08:39:59.769Z,24.26
2019-04-01T08:41:00.850Z,24.74
2019-04-01T08:41:59.740Z,25.45
2019-04-01T08:42:59.761Z,24.92
2019-04-01T08:44:03.078Z,24.63
2019-04-01T08:44:59.796Z,25.01
2019-04-01T08:45:59.692Z,24.92
2019-04-01T08:46:59.732Z,25.16
2019-04-01T08:47:59.663Z,24.64
2019-04-01T08:48:59.716Z,24.99
2019-04-01T08:49:59.655Z,25.45
2019-04-01T08:50:59.636Z,25.82
2019-04-01T08:51:59.636Z,25.83
2019-04-01T08:52:59.647Z,26.29
2019-04-01T08:53:59.626Z,26.86
2019-04-01T08:55:00.708Z,26.83
2019-04-01T08:56:01.002Z,27.43
2019-04-01T08:56:59.568Z,27.74
2019-04-01T08:58:06.540Z,28.02
2019-04-01T08:58:59.560Z,27.46
2019-04-01T08:59:59.622Z,27.53
2019-04-01T09:00:59.525Z,27.46
2019-04-01T09:01:59.511Z,27.21
2019-04-01T09:02:59.502Z,27.68
2019-04-01T09:03:59.542Z,27.15
2019-04-01T09:04:59.483Z,26.32
2019-04-01T09:06:00.657Z,26.32
2019-04-01T09:06:59.465Z,26.20
2019-04-01T09:07:59.454Z,26.41
2019-04-01T09:08:59.455Z,27.24
2019-04-01T09:09:59.496Z,27.35
2019-04-01T09:10:59.417Z,26.24
2019-04-01T09:11:59.441Z,25.64
2019-04-01T09:12:59.507Z,24.56
2019-04-01T09:13:59.398Z,24.63
2019-04-01T09:15:00.470Z,25.01
2019-04-01T09:15:59.361Z,24.21
2019-04-01T09:16:59.381Z,23.45
2019-04-01T09:17:59.331Z,22.64
2019-04-01T09:19:01.411Z,22.38
2019-04-01T09:19:59.322Z,21.64
2019-04-01T09:20:59.352Z,21.79
2019-04-01T09:21:59.305Z,22.46
2019-04-01T09:22:59.502Z,22.44
2019-04-01T09:23:59.303Z,22.39
2019-04-01T09:24:59.326Z,22.29
2019-04-01T09:25:59.245Z,23.12
2019-04-01T09:27:00.277Z,23.16
2019-04-01T09:27:59.226Z,22.41
2019-04-01T09:28:59.229Z,21.06
2019-04-01T09:29:59.237Z,20.63
2019-04-01T09:30:59.266Z,21.19
2019-04-01T09:31:59.188Z,21.12
2019-04-01T09:33:01.221Z,20.48
2019-04-01T09:33:59.160Z,19.82
2019-04-01T09:34:59.281Z,20.00
2019-04-01T09:35:59.142Z,20.41
2019-04-01T09:36:59.143Z,19.89
2019-04-01T09:37:59.125Z,19.43
2019-04-01T09:39:01.123Z,18.96
2019-04-01T09:39:59.104Z,19.72
2019-04-01T09:40:59.115Z,19.94
2019-04-01T09:41:59.074Z,20.22
2019-04-01T09:42:59.145Z,20.13
2019-04-01T09:43:59.055Z,19.78
2019-04-01T09:44:59.146Z,19.90
2019-04-01T09:45:59.485Z,19.62
2019-04-01T09:46:59.116Z,19.60
2019-04-01T09:47:59.007Z,19.61
2019-04-01T09:48:59.058Z,18.65
2019-04-01T09:49:58.998Z,17.57
2019-04-01T09:50:58.970Z,16.23
2019-04-01T09:52:03.639Z,14.53
2019-04-01T09:52:58.952Z,13.66
2019-04-01T09:53:59.000Z,13.22
2019-04-01T09:54:58.952Z,12.69
2019-04-01T09:55:58.922Z,12.23
2019-04-01T09:56:58.912Z,11.87
2019-04-01T09:57:58.973Z,11.62
2019-04-01T09:58:58.884Z,11.19
2019-04-01T09:59:58.944Z,11.19
2019-04-01T10:00:58.865Z,11.13
2019-04-01T10:01:58.855Z,11.01
2019-04-01T10:02:58.905Z,10.94
2019-04-01T10:03:58.827Z,10.75
2019-04-01T10:04:58.887Z,10.81
2019-04-01T10:05:58.809Z,10.72
2019-04-01T10:06:58.808Z,10.63
2019-04-01T10:07:58.778Z,10.70
2019-04-01T10:09:00.872Z,10.75
2019-04-01T10:09:58.790Z,10.78
2019-04-01T10:10:59.781Z,10.70
2019-04-01T10:11:58.749Z,10.68
2019-04-01T10:12:58.732Z,10.44
2019-04-01T10:13:58.752Z,10.44
2019-04-01T10:14:58.723Z,10.46
2019-04-01T10:15:59.713Z,10.34
2019-04-01T10:16:58.686Z,10.44
2019-04-01T10:17:58.679Z,10.49
2019-04-01T10:18:58.665Z,10.58
2019-04-01T10:20:00.874Z,10.65
2019-04-01T10:20:58.646Z,10.70
2019-04-01T10:21:58.707Z,10.80
2019-04-01T10:22:58.627Z,10.75
2019-04-01T10:23:58.621Z,10.83
2019-04-01T10:24:58.724Z,10.81
2019-04-01T10:25:58.579Z,10.81
2019-04-01T10:26:58.650Z,10.75
2019-04-01T10:27:58.560Z,10.81
2019-04-01T10:28:58.561Z,10.76
2019-04-01T10:29:58.551Z,10.91
2019-04-01T10:30:59.641Z,10.91
2019-04-01T10:31:58.523Z,10.99
2019-04-01T10:33:01.923Z,11.09
2019-04-01T10:33:58.505Z,11.08
2019-04-01T10:34:58.514Z,11.12
2019-04-01T10:35:58.555Z,11.36
2019-04-01T10:36:58.466Z,11.53
2019-04-01T10:37:58.486Z,11.49
2019-04-01T10:38:58.437Z,11.54
2019-04-01T10:40:00.185Z,11.59
2019-04-01T10:40:58.418Z,11.59
2019-04-01T10:41:58.468Z,11.53
2019-04-01T10:42:58.399Z,11.46
2019-04-01T10:43:58.400Z,11.38
2019-04-01T10:44:58.399Z,11.21
2019-04-01T10:45:58.362Z,11.16
2019-04-01T10:46:58.412Z,11.19
2019-04-01T10:47:58.497Z,11.24
2019-04-01T10:48:58.398Z,11.28
2019-04-01T10:49:58.392Z,11.48
2019-04-01T10:50:58.344Z,11.44
2019-04-01T10:51:58.424Z,11.41
2019-04-01T10:52:58.328Z,11.41
2019-04-01T10:53:58.426Z,11.46
2019-04-01T10:54:58.294Z,11.64
2019-04-01T10:55:58.361Z,11.66
2019-04-01T10:56:58.251Z,11.69
2019-04-01T10:57:58.287Z,11.85
2019-04-01T10:58:58.270Z,12.12
2019-04-01T10:59:58.233Z,12.18
2019-04-01T11:00:58.210Z,12.31
2019-04-01T11:01:58.189Z,12.41
2019-04-01T11:02:58.197Z,12.46
2019-04-01T11:03:58.162Z,12.38
2019-04-01T11:04:58.354Z,12.34
2019-04-01T11:05:58.149Z,12.37
2019-04-01T11:06:58.176Z,12.23
2019-04-01T11:07:58.123Z,12.34
2019-04-01T11:08:58.240Z,12.49
2019-04-01T11:09:58.114Z,12.58
2019-04-01T11:10:58.145Z,12.59
2019-04-01T11:11:58.069Z,12.73
2019-04-01T11:12:58.056Z,12.79
2019-04-01T11:13:58.148Z,12.73
2019-04-01T11:14:58.047Z,12.66
2019-04-01T11:15:59.107Z,12.52
2019-04-01T11:16:58.012Z,12.38
2019-04-01T11:17:57.999Z,12.36
2019-04-01T11:18:58.374Z,12.30
2019-04-01T11:19:58.113Z,12.19
2019-04-01T11:20:57.971Z,12.15
2019-04-01T11:21:59.021Z,12.18
2019-04-01T11:22:57.952Z,12.07
2019-04-01T11:23:57.924Z,12.04
2019-04-01T11:24:58.048Z,12.00
2019-04-01T11:25:57.905Z,11.96
2019-04-01T11:26:57.935Z,12.05
2019-04-01T11:27:57.855Z,12.13
2019-04-01T11:28:57.865Z,12.31
2019-04-01T11:29:57.887Z,12.41
2019-04-01T11:30:57.946Z,12.56
2019-04-01T11:31:57.880Z,12.71
2019-04-01T11:32:57.892Z,12.80
2019-04-01T11:33:57.865Z,12.70
2019-04-01T11:34:59.829Z,12.69
2019-04-01T11:35:57.822Z,12.70
2019-04-01T11:36:57.828Z,12.70
2019-04-01T11:37:57.776Z,12.76
2019-04-01T11:38:57.856Z,12.87
2019-04-01T11:39:57.761Z,12.92
2019-04-01T11:40:59.814Z,12.95
2019-04-01T11:42:01.264Z,13.09
2019-04-01T11:42:57.744Z,13.14
2019-04-01T11:43:57.702Z,13.01
2019-04-01T11:44:57.751Z,12.94
2019-04-01T11:45:57.716Z,12.96
2019-04-01T11:46:57.732Z,12.95
2019-04-01T11:47:57.702Z,12.87
2019-04-01T11:48:57.772Z,12.88
2019-04-01T11:49:57.632Z,12.95
2019-04-01T11:50:57.676Z,13.01
2019-04-01T11:51:57.691Z,13.27
2019-04-01T11:52:57.621Z,13.35
2019-04-01T11:53:57.680Z,13.31
2019-04-01T11:54:57.573Z,13.24
2019-04-01T11:55:57.581Z,13.10
2019-04-01T11:56:57.561Z,13.10
2019-04-01T11:57:57.653Z,12.99
2019-04-01T11:58:57.533Z,12.74
2019-04-01T11:59:58.613Z,12.67
2019-04-01T12:00:57.534Z,12.46
2019-04-01T12:01:57.505Z,12.41
2019-04-01T12:02:57.486Z,12.37
2019-04-01T12:03:58.575Z,12.37
2019-04-01T12:04:57.456Z,12.34
2019-04-01T12:05:58.557Z,12.38
2019-04-01T12:06:57.428Z,12.41
2019-04-01T12:07:57.497Z,12.55
2019-04-01T12:08:58.178Z,12.59
2019-04-01T12:09:57.654Z,12.66
2019-04-01T12:10:57.453Z,12.69
2019-04-01T12:11:57.400Z,12.79
2019-04-01T12:12:57.381Z,12.74
2019-04-01T12:13:57.362Z,12.81
2019-04-01T12:14:57.402Z,12.87
2019-04-01T12:15:57.353Z,12.87
2019-04-01T12:16:58.363Z,12.79
2019-04-01T12:17:57.313Z,12.63
2019-04-01T12:18:57.305Z,12.58
2019-04-01T12:19:57.349Z,12.67
2019-04-01T12:21:48.165Z,12.73
2019-04-01T12:22:47.016Z,12.87
2019-04-01T12:23:49.085Z,12.95
2019-04-01T12:24:46.997Z,12.98
2019-04-01T12:25:47.127Z,13.12
2019-04-01T12:26:47.189Z,13.09
2019-04-01T12:27:47.107Z,13.04
2019-04-01T12:28:46.939Z,12.95
2019-04-01T12:29:48.997Z,12.98
2019-04-01T12:30:46.939Z,13.07
2019-04-01T12:31:53.551Z,13.19
2019-04-01T12:32:46.885Z,13.16
2019-04-01T12:33:48.961Z,13.25
2019-04-01T12:34:47.117Z,13.28
2019-04-01T12:35:46.899Z,13.29
2019-04-01T12:36:46.863Z,13.22
2019-04-01T12:37:46.994Z,13.22
2019-04-01T12:38:47.053Z,13.36
2019-04-01T12:39:47.947Z,13.46
2019-04-01T12:40:47.322Z,13.48
2019-04-01T12:41:47.590Z,13.48
2019-04-01T12:42:50.604Z,13.41
2019-04-01T12:43:46.916Z,13.31
2019-04-01T12:44:46.781Z,13.31
2019-04-01T12:45:46.827Z,13.35
2019-04-01T12:46:47.252Z,13.24
2019-04-01T12:47:46.730Z,13.16
2019-04-01T12:48:46.843Z,13.06
2019-04-01T12:49:46.711Z,12.95
2019-04-01T12:50:46.831Z,12.88
2019-04-01T12:51:46.682Z,12.79
2019-04-01T12:52:47.077Z,12.89
2019-04-01T12:53:46.664Z,12.77
2019-04-01T12:54:46.743Z,12.74
2019-04-01T12:55:46.646Z,12.77
2019-04-01T12:56:46.685Z,12.74
2019-04-01T12:57:48.384Z,12.74
2019-04-01T12:58:46.596Z,12.73